sensor_id;sensor_type;location;lat;lon;timestamp;P1;durP1;ratioP1;P2;durP2;ratioP2
35795;SDS011;21916;52.428;13.302;2022-12-18T00:01:28;85.90;;;24.95;;
35795;SDS011;21916;52.428;13.302;2022-12-18T00:03:54;72.90;;;23.08;;
35795;SDS011;21916;52.428;13.302;2022-12-18T00:06:23;81.65;;;27.23;;
35795;SDS011;21916;52.428;13.302;2022-12-18T00:08:51;80.97;;;24.83;;
35795;SDS011;21916;52.428;13.302;2022-12-18T00:11:18;69.75;;;24.15;;
35795;SDS011;21916;52.428;13.302;2022-12-18T00:13:46;84.90;;;25.17;;
35795;SDS011;21916;52.428;13.302;2022-12-18T00:16:14;79.75;;;23.92;;
35795;SDS011;21916;52.428;13.302;2022-12-18T00:18:43;82.72;;;24.33;;
35795;SDS011;21916;52.428;13.302;2022-12-18T00:21:10;82.22;;;25.17;;
35795;SDS011;21916;52.428;13.302;2022-12-18T00:23:37;73.78;;;23.05;;
35795;SDS011;21916;52.428;13.302;2022-12-18T00:26:06;83.75;;;27.38;;
35795;SDS011;21916;52.428;13.302;2022-12-18T00:28:37;82.53;;;25.05;;
35795;SDS011;21916;52.428;13.302;2022-12-18T00:31:04;89.30;;;26.55;;
35795;SDS011;21916;52.428;13.302;2022-12-18T00:33:34;78.70;;;23.88;;
35795;SDS011;21916;52.428;13.302;2022-12-18T00:36:01;74.70;;;22.73;;
35795;SDS011;21916;52.428;13.302;2022-12-18T00:38:32;91.57;;;25.42;;
35795;SDS011;21916;52.428;13.302;2022-12-18T00:40:58;88.65;;;25.52;;
35795;SDS011;21916;52.428;13.302;2022-12-18T00:43:24;90.20;;;23.65;;
35795;SDS011;21916;52.428;13.302;2022-12-18T00:45:51;73.93;;;22.85;;
35795;SDS011;21916;52.428;13.302;2022-12-18T00:48:17;81.20;;;23.42;;
35795;SDS011;21916;52.428;13.302;2022-12-18T00:50:43;77.50;;;23.85;;
35795;SDS011;21916;52.428;13.302;2022-12-18T00:53:09;88.90;;;25.83;;
35795;SDS011;21916;52.428;13.302;2022-12-18T00:55:39;81.13;;;24.92;;
35795;SDS011;21916;52.428;13.302;2022-12-18T00:58:05;77.75;;;21.45;;
35795;SDS011;21916;52.428;13.302;2022-12-18T01:00:31;84.72;;;23.15;;
35795;SDS011;21916;52.428;13.302;2022-12-18T01:02:57;84.82;;;24.58;;
35795;SDS011;21916;52.428;13.302;2022-12-18T01:05:23;84.90;;;22.35;;
35795;SDS011;21916;52.428;13.302;2022-12-18T01:07:50;82.95;;;25.88;;
35795;SDS011;21916;52.428;13.302;2022-12-18T01:10:16;76.00;;;23.48;;
35795;SDS011;21916;52.428;13.302;2022-12-18T01:12:44;72.72;;;21.55;;
35795;SDS011;21916;52.428;13.302;2022-12-18T01:15:10;82.72;;;23.10;;
35795;SDS011;21916;52.428;13.302;2022-12-18T01:17:37;62.88;;;21.60;;
35795;SDS011;21916;52.428;13.302;2022-12-18T01:20:04;88.93;;;21.60;;
35795;SDS011;21916;52.428;13.302;2022-12-18T01:22:31;67.78;;;21.17;;
35795;SDS011;21916;52.428;13.302;2022-12-18T01:24:59;67.15;;;21.95;;
35795;SDS011;21916;52.428;13.302;2022-12-18T01:27:25;102.90;;;22.02;;
35795;SDS011;21916;52.428;13.302;2022-12-18T01:29:51;75.18;;;21.27;;
35795;SDS011;21916;52.428;13.302;2022-12-18T01:32:19;72.10;;;20.77;;
35795;SDS011;21916;52.428;13.302;2022-12-18T01:34:45;93.75;;;22.67;;
35795;SDS011;21916;52.428;13.302;2022-12-18T01:37:13;74.90;;;21.05;;
35795;SDS011;21916;52.428;13.302;2022-12-18T01:39:38;70.32;;;22.40;;
35795;SDS011;21916;52.428;13.302;2022-12-18T01:42:09;77.78;;;22.48;;
35795;SDS011;21916;52.428;13.302;2022-12-18T01:47:15;88.75;;;22.85;;
35795;SDS011;21916;52.428;13.302;2022-12-18T01:49:50;60.05;;;20.83;;
35795;SDS011;21916;52.428;13.302;2022-12-18T01:52:16;75.45;;;22.63;;
35795;SDS011;21916;52.428;13.302;2022-12-18T01:54:44;76.38;;;22.88;;
35795;SDS011;21916;52.428;13.302;2022-12-18T01:57:11;80.15;;;23.33;;
35795;SDS011;21916;52.428;13.302;2022-12-18T01:59:39;82.15;;;24.40;;
35795;SDS011;21916;52.428;13.302;2022-12-18T02:02:08;70.70;;;23.70;;
35795;SDS011;21916;52.428;13.302;2022-12-18T02:04:34;71.22;;;24.15;;
35795;SDS011;21916;52.428;13.302;2022-12-18T02:07:13;73.57;;;23.17;;
35795;SDS011;21916;52.428;13.302;2022-12-18T02:09:51;77.43;;;25.02;;
35795;SDS011;21916;52.428;13.302;2022-12-18T02:12:48;70.28;;;21.23;;
35795;SDS011;21916;52.428;13.302;2022-12-18T02:15:58;97.07;;;23.15;;
35795;SDS011;21916;52.428;13.302;2022-12-18T02:18:33;81.95;;;24.35;;
35795;SDS011;21916;52.428;13.302;2022-12-18T02:21:20;66.03;;;21.52;;
35795;SDS011;21916;52.428;13.302;2022-12-18T02:27:04;70.22;;;22.98;;
35795;SDS011;21916;52.428;13.302;2022-12-18T02:29:34;74.20;;;22.23;;
35795;SDS011;21916;52.428;13.302;2022-12-18T02:32:10;80.55;;;25.52;;
35795;SDS011;21916;52.428;13.302;2022-12-18T02:34:41;62.47;;;19.60;;
35795;SDS011;21916;52.428;13.302;2022-12-18T02:37:14;71.18;;;23.50;;
35795;SDS011;21916;52.428;13.302;2022-12-18T02:39:42;78.50;;;24.63;;
35795;SDS011;21916;52.428;13.302;2022-12-18T02:42:12;79.55;;;23.77;;
35795;SDS011;21916;52.428;13.302;2022-12-18T02:44:44;81.05;;;23.65;;
35795;SDS011;21916;52.428;13.302;2022-12-18T02:47:13;82.75;;;24.08;;
35795;SDS011;21916;52.428;13.302;2022-12-18T02:49:44;85.07;;;23.70;;
35795;SDS011;21916;52.428;13.302;2022-12-18T02:55:37;83.65;;;24.20;;
35795;SDS011;21916;52.428;13.302;2022-12-18T02:58:26;77.80;;;23.13;;
35795;SDS011;21916;52.428;13.302;2022-12-18T03:01:31;81.32;;;23.83;;
35795;SDS011;21916;52.428;13.302;2022-12-18T03:04:09;79.00;;;25.25;;
35795;SDS011;21916;52.428;13.302;2022-12-18T03:06:57;89.47;;;25.85;;
35795;SDS011;21916;52.428;13.302;2022-12-18T03:09:27;82.65;;;23.00;;
35795;SDS011;21916;52.428;13.302;2022-12-18T03:14:46;79.78;;;23.52;;
35795;SDS011;21916;52.428;13.302;2022-12-18T03:17:17;96.57;;;27.55;;
35795;SDS011;21916;52.428;13.302;2022-12-18T03:19:47;96.05;;;26.92;;
35795;SDS011;21916;52.428;13.302;2022-12-18T03:22:16;85.57;;;26.25;;
35795;SDS011;21916;52.428;13.302;2022-12-18T03:24:49;98.15;;;28.98;;
35795;SDS011;21916;52.428;13.302;2022-12-18T03:27:18;93.60;;;26.70;;
35795;SDS011;21916;52.428;13.302;2022-12-18T03:29:52;85.25;;;24.17;;
35795;SDS011;21916;52.428;13.302;2022-12-18T03:35:13;84.18;;;23.15;;
35795;SDS011;21916;52.428;13.302;2022-12-18T03:37:43;87.28;;;26.40;;
35795;SDS011;21916;52.428;13.302;2022-12-18T03:40:10;87.78;;;24.63;;
35795;SDS011;21916;52.428;13.302;2022-12-18T03:45:25;94.22;;;26.80;;
35795;SDS011;21916;52.428;13.302;2022-12-18T03:48:09;91.43;;;25.00;;
35795;SDS011;21916;52.428;13.302;2022-12-18T03:51:06;86.50;;;27.00;;
35795;SDS011;21916;52.428;13.302;2022-12-18T03:56:33;91.30;;;25.02;;
35795;SDS011;21916;52.428;13.302;2022-12-18T03:59:03;105.03;;;25.73;;
35795;SDS011;21916;52.428;13.302;2022-12-18T04:01:33;98.28;;;24.20;;
35795;SDS011;21916;52.428;13.302;2022-12-18T04:04:03;88.18;;;27.05;;
35795;SDS011;21916;52.428;13.302;2022-12-18T04:06:34;80.65;;;25.20;;
35795;SDS011;21916;52.428;13.302;2022-12-18T04:09:01;86.45;;;26.85;;
35795;SDS011;21916;52.428;13.302;2022-12-18T04:11:31;89.07;;;25.98;;
35795;SDS011;21916;52.428;13.302;2022-12-18T04:13:59;87.30;;;23.77;;
35795;SDS011;21916;52.428;13.302;2022-12-18T04:16:25;82.00;;;25.48;;
35795;SDS011;21916;52.428;13.302;2022-12-18T04:18:56;82.78;;;25.90;;
35795;SDS011;21916;52.428;13.302;2022-12-18T04:21:25;91.95;;;25.40;;
35795;SDS011;21916;52.428;13.302;2022-12-18T04:23:52;97.28;;;25.65;;
35795;SDS011;21916;52.428;13.302;2022-12-18T04:26:20;87.93;;;26.15;;
35795;SDS011;21916;52.428;13.302;2022-12-18T04:29:01;84.88;;;26.67;;
35795;SDS011;21916;52.428;13.302;2022-12-18T04:31:27;93.82;;;28.90;;
35795;SDS011;21916;52.428;13.302;2022-12-18T04:33:55;101.85;;;28.52;;
35795;SDS011;21916;52.428;13.302;2022-12-18T04:36:21;88.15;;;27.73;;
35795;SDS011;21916;52.428;13.302;2022-12-18T04:38:49;102.97;;;28.10;;
35795;SDS011;21916;52.428;13.302;2022-12-18T04:41:16;102.43;;;28.80;;
35795;SDS011;21916;52.428;13.302;2022-12-18T04:43:45;92.00;;;26.88;;
35795;SDS011;21916;52.428;13.302;2022-12-18T04:46:11;99.00;;;27.08;;
35795;SDS011;21916;52.428;13.302;2022-12-18T04:48:37;94.28;;;26.50;;
35795;SDS011;21916;52.428;13.302;2022-12-18T04:51:03;95.50;;;28.95;;
35795;SDS011;21916;52.428;13.302;2022-12-18T04:53:30;89.07;;;27.13;;
35795;SDS011;21916;52.428;13.302;2022-12-18T04:56:03;101.50;;;27.50;;
35795;SDS011;21916;52.428;13.302;2022-12-18T04:58:34;99.30;;;28.48;;
35795;SDS011;21916;52.428;13.302;2022-12-18T05:01:00;100.30;;;29.52;;
35795;SDS011;21916;52.428;13.302;2022-12-18T05:03:28;117.38;;;27.02;;
35795;SDS011;21916;52.428;13.302;2022-12-18T05:05:54;88.45;;;25.45;;
35795;SDS011;21916;52.428;13.302;2022-12-18T05:08:20;95.15;;;27.48;;
35795;SDS011;21916;52.428;13.302;2022-12-18T05:10:46;96.80;;;25.38;;
35795;SDS011;21916;52.428;13.302;2022-12-18T05:13:12;82.10;;;24.50;;
35795;SDS011;21916;52.428;13.302;2022-12-18T05:15:38;84.65;;;26.65;;
35795;SDS011;21916;52.428;13.302;2022-12-18T05:18:04;86.70;;;28.40;;
35795;SDS011;21916;52.428;13.302;2022-12-18T05:20:30;89.25;;;26.52;;
35795;SDS011;21916;52.428;13.302;2022-12-18T05:22:56;78.75;;;25.90;;
35795;SDS011;21916;52.428;13.302;2022-12-18T05:25:22;86.28;;;26.60;;
35795;SDS011;21916;52.428;13.302;2022-12-18T05:27:49;80.28;;;25.92;;
35795;SDS011;21916;52.428;13.302;2022-12-18T05:30:15;85.07;;;25.70;;
35795;SDS011;21916;52.428;13.302;2022-12-18T05:32:42;75.25;;;23.48;;
35795;SDS011;21916;52.428;13.302;2022-12-18T05:35:08;95.43;;;30.13;;
35795;SDS011;21916;52.428;13.302;2022-12-18T05:37:36;90.15;;;30.27;;
35795;SDS011;21916;52.428;13.302;2022-12-18T05:40:03;88.43;;;27.90;;
35795;SDS011;21916;52.428;13.302;2022-12-18T05:42:29;92.57;;;27.98;;
35795;SDS011;21916;52.428;13.302;2022-12-18T05:44:56;88.20;;;29.17;;
35795;SDS011;21916;52.428;13.302;2022-12-18T05:47:22;87.57;;;27.50;;
35795;SDS011;21916;52.428;13.302;2022-12-18T05:49:47;76.00;;;25.02;;
35795;SDS011;21916;52.428;13.302;2022-12-18T05:52:13;66.72;;;23.38;;
35795;SDS011;21916;52.428;13.302;2022-12-18T05:54:40;63.63;;;22.60;;
35795;SDS011;21916;52.428;13.302;2022-12-18T05:57:05;80.60;;;24.10;;
35795;SDS011;21916;52.428;13.302;2022-12-18T05:59:31;74.07;;;24.48;;
35795;SDS011;21916;52.428;13.302;2022-12-18T06:01:57;79.93;;;25.15;;
35795;SDS011;21916;52.428;13.302;2022-12-18T06:04:23;75.95;;;25.70;;
35795;SDS011;21916;52.428;13.302;2022-12-18T06:06:49;85.43;;;27.88;;
35795;SDS011;21916;52.428;13.302;2022-12-18T06:09:14;76.47;;;24.75;;
35795;SDS011;21916;52.428;13.302;2022-12-18T06:11:40;89.00;;;26.98;;
35795;SDS011;21916;52.428;13.302;2022-12-18T06:14:06;88.40;;;28.98;;
35795;SDS011;21916;52.428;13.302;2022-12-18T06:16:32;88.65;;;27.90;;
35795;SDS011;21916;52.428;13.302;2022-12-18T06:18:59;85.32;;;28.98;;
35795;SDS011;21916;52.428;13.302;2022-12-18T06:21:26;78.50;;;28.98;;
35795;SDS011;21916;52.428;13.302;2022-12-18T06:23:54;71.40;;;25.27;;
35795;SDS011;21916;52.428;13.302;2022-12-18T06:26:20;78.68;;;26.25;;
35795;SDS011;21916;52.428;13.302;2022-12-18T06:28:46;73.30;;;23.27;;
35795;SDS011;21916;52.428;13.302;2022-12-18T06:31:12;62.50;;;23.60;;
35795;SDS011;21916;52.428;13.302;2022-12-18T06:33:38;66.55;;;21.50;;
35795;SDS011;21916;52.428;13.302;2022-12-18T06:36:05;65.88;;;21.45;;
35795;SDS011;21916;52.428;13.302;2022-12-18T06:38:36;59.83;;;20.65;;
35795;SDS011;21916;52.428;13.302;2022-12-18T06:41:10;73.47;;;22.50;;
35795;SDS011;21916;52.428;13.302;2022-12-18T06:43:38;73.95;;;24.45;;
35795;SDS011;21916;52.428;13.302;2022-12-18T06:46:04;65.15;;;21.88;;
35795;SDS011;21916;52.428;13.302;2022-12-18T06:48:31;77.35;;;23.50;;
35795;SDS011;21916;52.428;13.302;2022-12-18T06:50:57;72.47;;;24.80;;
35795;SDS011;21916;52.428;13.302;2022-12-18T06:53:23;75.15;;;24.38;;
35795;SDS011;21916;52.428;13.302;2022-12-18T06:55:49;71.10;;;24.38;;
35795;SDS011;21916;52.428;13.302;2022-12-18T06:58:15;99.03;;;29.08;;
35795;SDS011;21916;52.428;13.302;2022-12-18T07:00:41;73.85;;;25.23;;
35795;SDS011;21916;52.428;13.302;2022-12-18T07:03:08;76.93;;;26.30;;
35795;SDS011;21916;52.428;13.302;2022-12-18T07:05:39;85.70;;;29.83;;
35795;SDS011;21916;52.428;13.302;2022-12-18T07:08:07;85.47;;;28.20;;
35795;SDS011;21916;52.428;13.302;2022-12-18T07:10:33;90.43;;;28.70;;
35795;SDS011;21916;52.428;13.302;2022-12-18T07:12:59;90.05;;;28.73;;
35795;SDS011;21916;52.428;13.302;2022-12-18T07:15:25;97.40;;;28.17;;
35795;SDS011;21916;52.428;13.302;2022-12-18T07:17:51;105.00;;;31.83;;
35795;SDS011;21916;52.428;13.302;2022-12-18T07:20:18;110.45;;;32.28;;
35795;SDS011;21916;52.428;13.302;2022-12-18T07:22:44;103.70;;;31.95;;
35795;SDS011;21916;52.428;13.302;2022-12-18T07:25:10;115.28;;;35.08;;
35795;SDS011;21916;52.428;13.302;2022-12-18T07:27:36;114.15;;;34.75;;
35795;SDS011;21916;52.428;13.302;2022-12-18T07:30:03;111.50;;;33.45;;
35795;SDS011;21916;52.428;13.302;2022-12-18T07:32:29;114.90;;;33.88;;
35795;SDS011;21916;52.428;13.302;2022-12-18T07:34:55;125.10;;;34.85;;
35795;SDS011;21916;52.428;13.302;2022-12-18T07:37:23;112.80;;;34.72;;
35795;SDS011;21916;52.428;13.302;2022-12-18T07:39:50;104.72;;;32.22;;
35795;SDS011;21916;52.428;13.302;2022-12-18T07:42:16;103.57;;;30.15;;
35795;SDS011;21916;52.428;13.302;2022-12-18T07:45:00;97.85;;;29.40;;
35795;SDS011;21916;52.428;13.302;2022-12-18T07:47:27;82.13;;;26.00;;
35795;SDS011;21916;52.428;13.302;2022-12-18T07:49:54;83.65;;;27.33;;
35795;SDS011;21916;52.428;13.302;2022-12-18T07:52:20;87.60;;;28.25;;
35795;SDS011;21916;52.428;13.302;2022-12-18T07:54:47;70.43;;;22.85;;
35795;SDS011;21916;52.428;13.302;2022-12-18T07:57:15;75.80;;;25.40;;
35795;SDS011;21916;52.428;13.302;2022-12-18T07:59:42;74.60;;;23.27;;
35795;SDS011;21916;52.428;13.302;2022-12-18T08:02:08;73.07;;;24.02;;
35795;SDS011;21916;52.428;13.302;2022-12-18T08:04:34;64.00;;;22.42;;
35795;SDS011;21916;52.428;13.302;2022-12-18T08:07:00;66.65;;;23.15;;
35795;SDS011;21916;52.428;13.302;2022-12-18T08:09:26;69.57;;;23.50;;
35795;SDS011;21916;52.428;13.302;2022-12-18T08:11:52;69.00;;;25.25;;
35795;SDS011;21916;52.428;13.302;2022-12-18T08:14:18;83.72;;;25.13;;
35795;SDS011;21916;52.428;13.302;2022-12-18T08:16:45;72.15;;;21.42;;
35795;SDS011;21916;52.428;13.302;2022-12-18T08:19:11;67.95;;;23.48;;
35795;SDS011;21916;52.428;13.302;2022-12-18T08:21:37;70.22;;;25.17;;
35795;SDS011;21916;52.428;13.302;2022-12-18T08:24:03;80.40;;;25.38;;
35795;SDS011;21916;52.428;13.302;2022-12-18T08:26:30;74.38;;;25.98;;
35795;SDS011;21916;52.428;13.302;2022-12-18T08:28:57;72.85;;;24.98;;
35795;SDS011;21916;52.428;13.302;2022-12-18T08:31:25;65.50;;;23.55;;
35795;SDS011;21916;52.428;13.302;2022-12-18T08:33:52;68.90;;;23.95;;
35795;SDS011;21916;52.428;13.302;2022-12-18T08:36:21;75.47;;;25.48;;
35795;SDS011;21916;52.428;13.302;2022-12-18T08:38:48;83.60;;;24.30;;
35795;SDS011;21916;52.428;13.302;2022-12-18T08:41:14;82.20;;;26.95;;
35795;SDS011;21916;52.428;13.302;2022-12-18T08:43:41;74.95;;;22.13;;
35795;SDS011;21916;52.428;13.302;2022-12-18T08:46:26;76.57;;;23.70;;
35795;SDS011;21916;52.428;13.302;2022-12-18T08:48:56;70.28;;;23.85;;
35795;SDS011;21916;52.428;13.302;2022-12-18T08:51:21;75.07;;;25.67;;
35795;SDS011;21916;52.428;13.302;2022-12-18T08:53:47;72.32;;;24.48;;
35795;SDS011;21916;52.428;13.302;2022-12-18T08:56:14;74.32;;;23.23;;
35795;SDS011;21916;52.428;13.302;2022-12-18T08:58:41;76.82;;;24.05;;
35795;SDS011;21916;52.428;13.302;2022-12-18T09:01:08;81.93;;;23.80;;
35795;SDS011;21916;52.428;13.302;2022-12-18T09:03:35;74.13;;;24.80;;
35795;SDS011;21916;52.428;13.302;2022-12-18T09:06:01;70.72;;;22.67;;
35795;SDS011;21916;52.428;13.302;2022-12-18T09:08:28;78.65;;;24.92;;
35795;SDS011;21916;52.428;13.302;2022-12-18T09:10:54;74.90;;;23.25;;
35795;SDS011;21916;52.428;13.302;2022-12-18T09:13:20;80.82;;;27.05;;
35795;SDS011;21916;52.428;13.302;2022-12-18T09:15:48;69.63;;;24.17;;
35795;SDS011;21916;52.428;13.302;2022-12-18T09:18:19;66.55;;;24.33;;
35795;SDS011;21916;52.428;13.302;2022-12-18T09:20:46;78.05;;;26.98;;
35795;SDS011;21916;52.428;13.302;2022-12-18T09:23:14;68.65;;;23.33;;
35795;SDS011;21916;52.428;13.302;2022-12-18T09:25:41;82.85;;;25.90;;
35795;SDS011;21916;52.428;13.302;2022-12-18T09:28:10;75.20;;;27.67;;
35795;SDS011;21916;52.428;13.302;2022-12-18T09:30:38;82.18;;;26.48;;
35795;SDS011;21916;52.428;13.302;2022-12-18T09:33:07;75.55;;;27.52;;
35795;SDS011;21916;52.428;13.302;2022-12-18T09:35:36;78.13;;;26.33;;
35795;SDS011;21916;52.428;13.302;2022-12-18T09:43:41;84.95;;;28.23;;
35795;SDS011;21916;52.428;13.302;2022-12-18T09:46:17;80.95;;;28.63;;
35795;SDS011;21916;52.428;13.302;2022-12-18T09:48:51;80.20;;;28.35;;
35795;SDS011;21916;52.428;13.302;2022-12-18T09:51:24;74.65;;;28.10;;
35795;SDS011;21916;52.428;13.302;2022-12-18T09:53:57;82.50;;;26.90;;
35795;SDS011;21916;52.428;13.302;2022-12-18T09:56:31;82.30;;;27.73;;
35795;SDS011;21916;52.428;13.302;2022-12-18T09:59:02;76.93;;;26.20;;
35795;SDS011;21916;52.428;13.302;2022-12-18T10:01:30;81.68;;;27.85;;
35795;SDS011;21916;52.428;13.302;2022-12-18T10:03:58;65.28;;;24.35;;
35795;SDS011;21916;52.428;13.302;2022-12-18T10:09:26;64.38;;;23.15;;
35795;SDS011;21916;52.428;13.302;2022-12-18T10:12:05;68.68;;;24.38;;
35795;SDS011;21916;52.428;13.302;2022-12-18T10:14:53;61.08;;;22.88;;
35795;SDS011;21916;52.428;13.302;2022-12-18T10:22:38;47.78;;;18.60;;
35795;SDS011;21916;52.428;13.302;2022-12-18T10:27:38;54.40;;;21.15;;
35795;SDS011;21916;52.428;13.302;2022-12-18T10:30:12;48.78;;;18.88;;
35795;SDS011;21916;52.428;13.302;2022-12-18T10:32:43;60.30;;;20.60;;
35795;SDS011;21916;52.428;13.302;2022-12-18T10:35:20;52.15;;;20.10;;
35795;SDS011;21916;52.428;13.302;2022-12-18T10:38:04;54.38;;;18.90;;
35795;SDS011;21916;52.428;13.302;2022-12-18T10:40:56;54.58;;;19.38;;
35795;SDS011;21916;52.428;13.302;2022-12-18T10:47:02;54.40;;;20.42;;
35795;SDS011;21916;52.428;13.302;2022-12-18T10:49:31;51.38;;;20.67;;
35795;SDS011;21916;52.428;13.302;2022-12-18T10:52:07;54.55;;;20.10;;
35795;SDS011;21916;52.428;13.302;2022-12-18T10:54:45;63.22;;;21.48;;
35795;SDS011;21916;52.428;13.302;2022-12-18T10:57:34;50.47;;;22.15;;
35795;SDS011;21916;52.428;13.302;2022-12-18T11:02:50;60.20;;;21.17;;
35795;SDS011;21916;52.428;13.302;2022-12-18T11:05:32;64.55;;;21.50;;
35795;SDS011;21916;52.428;13.302;2022-12-18T11:07:59;66.93;;;22.52;;
35795;SDS011;21916;52.428;13.302;2022-12-18T11:10:33;58.42;;;20.73;;
35795;SDS011;21916;52.428;13.302;2022-12-18T11:13:11;62.70;;;23.25;;
35795;SDS011;21916;52.428;13.302;2022-12-18T11:15:44;58.70;;;22.93;;
35795;SDS011;21916;52.428;13.302;2022-12-18T11:20:56;63.28;;;21.77;;
35795;SDS011;21916;52.428;13.302;2022-12-18T11:23:22;57.58;;;22.33;;
35795;SDS011;21916;52.428;13.302;2022-12-18T11:25:53;67.78;;;25.00;;
35795;SDS011;21916;52.428;13.302;2022-12-18T11:28:28;73.38;;;25.30;;
35795;SDS011;21916;52.428;13.302;2022-12-18T11:33:48;47.38;;;20.48;;
35795;SDS011;21916;52.428;13.302;2022-12-18T11:36:25;57.05;;;23.67;;
35795;SDS011;21916;52.428;13.302;2022-12-18T11:38:56;63.55;;;24.52;;
35795;SDS011;21916;52.428;13.302;2022-12-18T11:41:32;68.47;;;25.67;;
35795;SDS011;21916;52.428;13.302;2022-12-18T11:44:28;66.40;;;26.40;;
35795;SDS011;21916;52.428;13.302;2022-12-18T11:47:00;63.35;;;21.67;;
35795;SDS011;21916;52.428;13.302;2022-12-18T11:49:48;55.45;;;23.50;;
35795;SDS011;21916;52.428;13.302;2022-12-18T11:52:16;58.50;;;23.38;;
35795;SDS011;21916;52.428;13.302;2022-12-18T11:54:52;60.72;;;23.20;;
35795;SDS011;21916;52.428;13.302;2022-12-18T11:57:39;55.50;;;21.85;;
35795;SDS011;21916;52.428;13.302;2022-12-18T12:00:14;61.38;;;22.00;;
35795;SDS011;21916;52.428;13.302;2022-12-18T12:22:03;58.33;;;23.35;;
35795;SDS011;21916;52.428;13.302;2022-12-18T12:40:49;52.78;;;20.42;;
35795;SDS011;21916;52.428;13.302;2022-12-18T12:46:10;52.85;;;23.13;;
35795;SDS011;21916;52.428;13.302;2022-12-18T12:48:58;61.22;;;24.10;;
35795;SDS011;21916;52.428;13.302;2022-12-18T12:51:28;57.67;;;21.17;;
35795;SDS011;21916;52.428;13.302;2022-12-18T12:53:59;49.97;;;21.55;;
35795;SDS011;21916;52.428;13.302;2022-12-18T12:56:36;53.42;;;23.00;;
35795;SDS011;21916;52.428;13.302;2022-12-18T12:59:19;45.60;;;21.67;;
35795;SDS011;21916;52.428;13.302;2022-12-18T13:07:38;50.20;;;21.80;;
35795;SDS011;21916;52.428;13.302;2022-12-18T13:25:48;48.03;;;21.80;;
35795;SDS011;21916;52.428;13.302;2022-12-18T13:35:53;56.25;;;22.98;;
35795;SDS011;21916;52.428;13.302;2022-12-18T13:43:49;51.22;;;22.85;;
35795;SDS011;21916;52.428;13.302;2022-12-18T13:46:20;43.78;;;20.35;;
35795;SDS011;21916;52.428;13.302;2022-12-18T13:48:53;43.88;;;20.27;;
35795;SDS011;21916;52.428;13.302;2022-12-18T13:51:42;49.08;;;22.40;;
35795;SDS011;21916;52.428;13.302;2022-12-18T13:54:30;52.42;;;22.90;;
35795;SDS011;21916;52.428;13.302;2022-12-18T13:57:02;44.38;;;20.58;;
35795;SDS011;21916;52.428;13.302;2022-12-18T13:59:35;72.00;;;35.75;;
35795;SDS011;21916;52.428;13.302;2022-12-18T14:02:11;57.58;;;26.17;;
35795;SDS011;21916;52.428;13.302;2022-12-18T14:04:39;88.72;;;39.38;;
35795;SDS011;21916;52.428;13.302;2022-12-18T14:07:06;55.40;;;25.48;;
35795;SDS011;21916;52.428;13.302;2022-12-18T14:09:39;57.38;;;23.33;;
35795;SDS011;21916;52.428;13.302;2022-12-18T14:12:36;49.50;;;22.20;;
35795;SDS011;21916;52.428;13.302;2022-12-18T14:17:59;67.00;;;29.45;;
35795;SDS011;21916;52.428;13.302;2022-12-18T14:20:34;70.78;;;27.35;;
35795;SDS011;21916;52.428;13.302;2022-12-18T14:23:00;72.63;;;29.27;;
35795;SDS011;21916;52.428;13.302;2022-12-18T14:25:27;81.68;;;29.67;;
35795;SDS011;21916;52.428;13.302;2022-12-18T14:30:36;84.95;;;33.63;;
35795;SDS011;21916;52.428;13.302;2022-12-18T14:33:11;91.65;;;31.38;;
35795;SDS011;21916;52.428;13.302;2022-12-18T14:36:19;88.68;;;30.13;;
35795;SDS011;21916;52.428;13.302;2022-12-18T14:38:41;96.40;;;34.95;;
35795;SDS011;21916;52.428;13.302;2022-12-18T14:41:10;100.68;;;36.70;;
35795;SDS011;21916;52.428;13.302;2022-12-18T14:43:39;94.93;;;33.00;;
35795;SDS011;21916;52.428;13.302;2022-12-18T14:46:25;84.65;;;32.90;;
35795;SDS011;21916;52.428;13.302;2022-12-18T14:48:52;92.07;;;34.42;;
35795;SDS011;21916;52.428;13.302;2022-12-18T14:51:19;86.80;;;32.50;;
35795;SDS011;21916;52.428;13.302;2022-12-18T14:53:53;81.00;;;31.63;;
35795;SDS011;21916;52.428;13.302;2022-12-18T14:56:31;78.40;;;32.17;;
35795;SDS011;21916;52.428;13.302;2022-12-18T14:59:21;80.57;;;31.52;;
35795;SDS011;21916;52.428;13.302;2022-12-18T15:04:39;74.90;;;28.65;;
35795;SDS011;21916;52.428;13.302;2022-12-18T15:09:35;77.20;;;29.60;;
35795;SDS011;21916;52.428;13.302;2022-12-18T15:12:01;71.43;;;29.70;;
35795;SDS011;21916;52.428;13.302;2022-12-18T15:14:38;75.15;;;31.20;;
35795;SDS011;21916;52.428;13.302;2022-12-18T15:17:18;60.90;;;27.70;;
35795;SDS011;21916;52.428;13.302;2022-12-18T15:19:47;68.15;;;26.83;;
35795;SDS011;21916;52.428;13.302;2022-12-18T15:24:49;67.32;;;27.80;;
35795;SDS011;21916;52.428;13.302;2022-12-18T15:27:28;54.38;;;22.35;;
35795;SDS011;21916;52.428;13.302;2022-12-18T15:32:27;51.95;;;22.65;;
35795;SDS011;21916;52.428;13.302;2022-12-18T15:35:08;58.58;;;23.67;;
35795;SDS011;21916;52.428;13.302;2022-12-18T15:37:40;60.90;;;23.55;;
35795;SDS011;21916;52.428;13.302;2022-12-18T15:40:08;56.95;;;23.20;;
35795;SDS011;21916;52.428;13.302;2022-12-18T15:42:41;52.83;;;22.45;;
35795;SDS011;21916;52.428;13.302;2022-12-18T15:45:27;59.42;;;23.98;;
35795;SDS011;21916;52.428;13.302;2022-12-18T15:47:54;58.58;;;23.63;;
35795;SDS011;21916;52.428;13.302;2022-12-18T15:50:21;49.67;;;21.15;;
35795;SDS011;21916;52.428;13.302;2022-12-18T15:52:48;54.58;;;23.05;;
35795;SDS011;21916;52.428;13.302;2022-12-18T15:55:17;55.95;;;25.13;;
35795;SDS011;21916;52.428;13.302;2022-12-18T15:58:06;54.60;;;23.20;;
35795;SDS011;21916;52.428;13.302;2022-12-18T16:00:34;57.08;;;23.98;;
35795;SDS011;21916;52.428;13.302;2022-12-18T16:03:02;53.53;;;24.13;;
35795;SDS011;21916;52.428;13.302;2022-12-18T16:05:29;54.15;;;25.55;;
35795;SDS011;21916;52.428;13.302;2022-12-18T16:07:55;51.97;;;24.00;;
35795;SDS011;21916;52.428;13.302;2022-12-18T16:10:21;58.40;;;22.77;;
35795;SDS011;21916;52.428;13.302;2022-12-18T16:12:47;58.72;;;25.52;;
35795;SDS011;21916;52.428;13.302;2022-12-18T16:15:13;50.90;;;25.33;;
35795;SDS011;21916;52.428;13.302;2022-12-18T16:17:41;55.50;;;23.95;;
35795;SDS011;21916;52.428;13.302;2022-12-18T16:20:15;55.25;;;23.73;;
35795;SDS011;21916;52.428;13.302;2022-12-18T16:22:43;54.55;;;24.63;;
35795;SDS011;21916;52.428;13.302;2022-12-18T16:25:18;44.65;;;20.77;;
35795;SDS011;21916;52.428;13.302;2022-12-18T16:27:45;43.00;;;21.85;;
35795;SDS011;21916;52.428;13.302;2022-12-18T16:30:12;48.88;;;21.23;;
35795;SDS011;21916;52.428;13.302;2022-12-18T16:32:39;50.40;;;22.25;;
35795;SDS011;21916;52.428;13.302;2022-12-18T16:35:07;49.17;;;23.13;;
35795;SDS011;21916;52.428;13.302;2022-12-18T16:37:37;50.63;;;23.13;;
35795;SDS011;21916;52.428;13.302;2022-12-18T16:40:04;50.42;;;20.27;;
35795;SDS011;21916;52.428;13.302;2022-12-18T16:42:35;47.30;;;23.10;;
35795;SDS011;21916;52.428;13.302;2022-12-18T16:45:02;49.65;;;22.02;;